Time;durP1;ratioP1;P1;durP2;ratioP2;P2;SDS_P1;SDS_P2;PMS_P1;PMS_P2;Temp;Humidity;BMP_temperature;BMP_pressure;BME280_temperature;BME280_humidity;BME280_pressure;Samples;Min_cycle;Max_cycle;Signal;HPM_P1;HPM_P2
2021/03/17 05:01:41;;;;;;;;;;;4.80;99.90;;;;;;5487722;22;19926;-70
2021/03/17 05:04:08;;;;;;;;;;;4.80;99.90;;;;;;5025053;28;19930;-69
2021/03/17 05:06:35;;;;;;;;;;;4.80;99.90;;;;;;5017568;28;19941;-69
2021/03/17 05:09:02;;;;;;;;;;;4.90;99.90;;;;;;5017514;28;19929;-70
2021/03/17 05:11:29;;;;;;;;;;;4.90;99.90;;;;;;5046422;23;19925;-66
2021/03/17 05:13:55;;;;;;;;;;;4.80;99.90;;;;;;5036147;28;19947;-66
2021/03/17 05:16:21;;;;;;;;;;;4.90;99.90;;;;;;5035502;28;19925;-67
2021/03/17 05:18:48;;;;;;;;;;;4.80;99.90;;;;;;5035557;28;19925;-66
2021/03/17 05:21:14;;;;;;;;;;;4.80;99.90;;;;;;5035529;28;20334;-67
2021/03/17 05:23:41;;;;;;;;;;;4.80;99.90;;;;;;5036048;28;19925;-66
2021/03/17 05:26:07;;;;;;;;;;;4.90;99.90;;;;;;5035540;28;20322;-66
2021/03/17 05:28:33;;;;;;;;;;;4.80;99.90;;;;;;5035458;28;20346;-67
2021/03/17 05:31:00;;;;;;;;;;;4.90;99.90;;;;;;5035819;28;19932;-67
2021/03/17 05:33:27;;;;;;;;;;;4.90;99.90;;;;;;5036023;28;19929;-67
2021/03/17 05:35:54;;;;;;;;;;;4.90;99.90;;;;;;5035601;28;20375;-67
2021/03/17 05:38:20;;;;;;;;;;;4.90;99.90;;;;;;5035708;28;19925;-68
2021/03/17 05:40:46;;;;;;;;;;;4.90;99.90;;;;;;5035410;28;20449;-67
2021/03/17 05:43:12;;;;;;;;;;;4.90;99.90;;;;;;5036202;28;19925;-66
2021/03/17 05:45:39;;;;;;;;;;;4.90;99.90;;;;;;5036464;28;19929;-66
2021/03/17 05:48:06;;;;;;;;;;;4.90;99.90;;;;;;5035526;28;20442;-66
2021/03/17 05:50:32;;;;;;;;;;;4.90;99.90;;;;;;5035534;28;19975;-67
2021/03/17 05:52:59;;;;;;;;;;;5.00;99.90;;;;;;5035861;28;19925;-66
2021/03/17 05:55:25;;;;;;;;;;;5.00;99.90;;;;;;5035965;28;19975;-67
2021/03/17 05:57:52;;;;;;;;;;;5.00;99.90;;;;;;5035945;28;19932;-66
2021/03/17 06:00:19;;;;;;;;;;;5.00;99.90;;;;;;5036042;28;19925;-67
2021/03/17 06:02:46;;;;;;;;;;;5.00;99.90;;;;;;5035688;28;19929;-65
2021/03/17 06:05:13;;;;;;;;;;;4.90;99.90;;;;;;5034586;28;19925;-62
2021/03/17 06:07:41;;;;;;;;;;;5.10;99.90;;;;;;5035256;28;19932;-62
2021/03/17 06:10:08;;;;;;;;;;;5.30;99.90;;;;;;5034410;28;20303;-67
2021/03/17 06:12:36;;;;;;;;;;;5.60;99.90;;;;;;5035156;28;19925;-66
2021/03/17 06:15:02;;;;;;;;;;;5.80;99.90;;;;;;5034966;28;19925;-66
2021/03/17 06:17:30;;;;;;;;;;;5.70;99.90;;;;;;5035052;28;19925;-67
2021/03/17 06:19:59;;;;;;;;;;;5.60;99.90;;;;;;5035222;28;20334;-66
2021/03/17 06:22:25;;;;;;;;;;;5.50;99.90;;;;;;5034782;28;20418;-66
2021/03/17 06:24:52;;;;;;;;;;;5.50;99.90;;;;;;5035010;28;19925;-67
2021/03/17 06:27:19;;;;;;;;;;;5.40;99.90;;;;;;5034987;28;19926;-66
2021/03/17 06:29:46;;;;;;;;;;;5.40;99.90;;;;;;5034769;28;19929;-66
2021/03/17 06:32:12;;;;;;;;;;;5.30;99.90;;;;;;5034849;28;19933;-66
2021/03/17 06:34:45;;;;;;;;;;;5.30;99.90;;;;;;5034803;28;19926;-65
2021/03/17 06:37:11;;;;;;;;;;;5.20;99.90;;;;;;5034520;28;19932;-65
2021/03/17 06:39:37;;;;;;;;;;;5.20;99.90;;;;;;5034350;28;20442;-66
2021/03/17 06:42:03;;;;;;;;;;;5.20;99.90;;;;;;5034718;28;19948;-66
2021/03/17 06:44:30;;;;;;;;;;;5.20;99.90;;;;;;5034765;28;19925;-65
2021/03/17 06:47:17;;;;;;;;;;;5.10;99.90;;;;;;5034334;28;20391;-66
2021/03/17 06:49:45;;;;;;;;;;;5.00;99.90;;;;;;5034093;28;20291;-66
2021/03/17 06:52:25;;;;;;;;;;;5.10;99.90;;;;;;5033723;28;19925;-65
2021/03/17 06:55:04;;;;;;;;;;;5.10;99.90;;;;;;5033701;28;19925;-66
2021/03/17 06:57:30;;;;;;;;;;;5.20;99.90;;;;;;5034413;28;20323;-66
2021/03/17 07:00:16;;;;;;;;;;;5.30;99.90;;;;;;5033237;28;20380;-65
2021/03/17 07:02:48;;;;;;;;;;;5.30;99.90;;;;;;5033557;28;19932;-66
2021/03/17 07:05:14;;;;;;;;;;;5.30;99.90;;;;;;5034338;28;19925;-65
2021/03/17 07:07:45;;;;;;;;;;;5.30;99.90;;;;;;5033487;28;20027;-66
2021/03/17 07:10:12;;;;;;;;;;;5.40;99.90;;;;;;5033204;28;19931;-66
2021/03/17 07:12:38;;;;;;;;;;;5.40;99.90;;;;;;5033764;28;19925;-65
2021/03/17 07:15:09;;;;;;;;;;;5.50;99.90;;;;;;5033989;28;19925;-66
2021/03/17 07:17:35;;;;;;;;;;;5.60;99.90;;;;;;5037968;28;19925;-66
2021/03/17 07:20:04;;;;;;;;;;;5.60;99.90;;;;;;5037321;28;20392;-66
2021/03/17 07:22:30;;;;;;;;;;;5.70;99.90;;;;;;5037597;28;19971;-66
2021/03/17 07:25:00;;;;;;;;;;;5.90;99.90;;;;;;5037569;28;19929;-66
2021/03/17 07:27:27;;;;;;;;;;;5.90;99.90;;;;;;5037302;28;20434;-65
2021/03/17 07:30:08;;;;;;;;;;;6.00;99.90;;;;;;5037442;28;19925;-66
2021/03/17 07:32:49;;;;;;;;;;;6.10;99.90;;;;;;5034912;28;20449;-65
2021/03/17 07:35:24;;;;;;;;;;;6.20;99.90;;;;;;5037198;28;19975;-65
2021/03/17 07:38:01;;;;;;;;;;;6.30;99.90;;;;;;5037349;28;19960;-66
2021/03/17 07:40:27;;;;;;;;;;;6.30;99.90;;;;;;5037881;28;19929;-66
2021/03/17 07:42:53;;;;;;;;;;;6.40;99.90;;;;;;5037490;28;20299;-66
2021/03/17 07:45:19;;;;;;;;;;;6.40;99.90;;;;;;5037542;28;19933;-66
2021/03/17 07:47:45;;;;;;;;;;;6.40;99.90;;;;;;5037282;28;19925;-66
2021/03/17 07:50:12;;;;;;;;;;;6.40;99.90;;;;;;5036992;28;19975;-66
2021/03/17 07:52:40;;;;;;;;;;;6.50;99.90;;;;;;5037119;28;19933;-66
2021/03/17 07:55:09;;;;;;;;;;;6.50;99.90;;;;;;5036952;28;19929;-66
2021/03/17 07:57:35;;;;;;;;;;;6.50;99.90;;;;;;5037277;28;19940;-65
2021/03/17 08:00:01;;;;;;;;;;;6.50;99.90;;;;;;5037727;28;19932;-65
2021/03/17 08:02:27;;;;;;;;;;;6.70;99.90;;;;;;5037120;28;19925;-64
2021/03/17 08:04:53;;;;;;;;;;;6.70;99.90;;;;;;5036436;28;19925;-66
2021/03/17 08:07:20;;;;;;;;;;;6.90;99.90;;;;;;5036790;28;19940;-66
2021/03/17 08:09:47;;;;;;;;;;;7.50;99.90;;;;;;5036395;28;19929;-66
2021/03/17 08:12:13;;;;;;;;;;;8.00;99.90;;;;;;5036931;28;19947;-66
2021/03/17 08:14:41;;;;;;;;;;;8.50;99.90;;;;;;5038046;28;19933;-66
2021/03/17 08:17:09;;;;;;;;;;;9.00;99.90;;;;;;5040367;28;19925;-65
2021/03/17 08:19:35;;;;;;;;;;;8.90;99.90;;;;;;5040348;28;19925;-66
2021/03/17 08:22:02;;;;;;;;;;;9.00;99.90;;;;;;5036909;28;19933;-65
2021/03/17 08:24:38;;;;;;;;;;;8.80;99.90;;;;;;5036927;28;19924;-65
2021/03/17 08:27:16;;;;;;;;;;;8.70;99.90;;;;;;5035616;28;19932;-65
2021/03/17 08:29:43;;;;;;;;;;;8.80;99.90;;;;;;5036751;28;20372;-65
2021/03/17 08:32:09;;;;;;;;;;;9.50;99.90;;;;;;5036431;28;19929;-65
2021/03/17 08:34:36;;;;;;;;;;;9.80;99.90;;;;;;5036440;28;20380;-66
2021/03/17 08:37:03;;;;;;;;;;;10.40;99.90;;;;;;5036436;28;19924;-65
2021/03/17 08:39:43;;;;;;;;;;;11.00;99.90;;;;;;5036744;28;19925;-65
2021/03/17 08:42:09;;;;;;;;;;;12.10;99.90;;;;;;5036733;28;20288;-66
2021/03/17 08:44:44;;;;;;;;;;;12.70;99.90;;;;;;5036798;28;19971;-65
2021/03/17 08:47:14;;;;;;;;;;;13.20;99.90;;;;;;5036852;28;19925;-65
2021/03/17 08:49:40;;;;;;;;;;;12.90;99.90;;;;;;5036287;28;19926;-65
2021/03/17 08:52:08;;;;;;;;;;;12.10;99.90;;;;;;5036222;28;20327;-65
2021/03/17 08:54:57;;;;;;;;;;;11.10;99.90;;;;;;5035901;28;19925;-66
2021/03/17 08:57:24;;;;;;;;;;;10.60;99.90;;;;;;5035604;28;20283;-65
2021/03/17 08:59:52;;;;;;;;;;;10.80;99.90;;;;;;5035853;28;19932;-65
2021/03/17 09:02:42;;;;;;;;;;;11.00;99.90;;;;;;5036040;28;19983;-64
2021/03/17 09:05:17;;;;;;;;;;;11.30;99.90;;;;;;5035358;28;19926;-65
2021/03/17 09:08:00;;;;;;;;;;;11.80;99.90;;;;;;5035873;28;19929;-65
2021/03/17 09:10:38;;;;;;;;;;;12.70;99.90;;;;;;5035597;28;19932;-65
2021/03/17 09:13:04;;;;;;;;;;;14.00;99.90;;;;;;5036000;28;19929;-65
2021/03/17 09:15:41;;;;;;;;;;;13.80;99.40;;;;;;5035792;28;19925;-65
2021/03/17 09:18:08;;;;;;;;;;;13.40;98.90;;;;;;5035494;28;19929;-65
2021/03/17 09:20:35;;;;;;;;;;;12.60;99.50;;;;;;5035337;28;19932;-65
2021/03/17 09:23:05;;;;;;;;;;;12.00;99.90;;;;;;5035426;28;19932;-65
2021/03/17 09:25:32;;;;;;;;;;;11.70;99.90;;;;;;5034938;28;20387;-65
2021/03/17 09:28:03;;;;;;;;;;;12.00;99.90;;;;;;5035616;28;19925;-65
2021/03/17 09:30:32;;;;;;;;;;;12.20;99.90;;;;;;5035069;28;19925;-65
2021/03/17 09:32:59;;;;;;;;;;;12.00;99.90;;;;;;5035155;28;19940;-65
2021/03/17 09:35:26;;;;;;;;;;;12.00;99.90;;;;;;5035889;28;19925;-65
2021/03/17 09:37:58;;;;;;;;;;;12.10;99.90;;;;;;5036567;28;19951;-65
2021/03/17 09:40:24;;;;;;;;;;;12.00;99.90;;;;;;5035629;28;19926;-65
2021/03/17 09:42:50;;;;;;;;;;;12.30;99.90;;;;;;5035279;28;19972;-65
2021/03/17 09:45:16;;;;;;;;;;;11.90;99.90;;;;;;5035340;28;19975;-64
2021/03/17 09:47:43;;;;;;;;;;;11.80;99.90;;;;;;5036219;28;20284;-64
2021/03/17 09:50:16;;;;;;;;;;;11.40;99.90;;;;;;5036124;28;19929;-64
2021/03/17 09:52:43;;;;;;;;;;;11.10;99.90;;;;;;5035213;28;19925;-66
2021/03/17 09:55:25;;;;;;;;;;;10.80;99.90;;;;;;5034926;28;19972;-66
2021/03/17 09:57:56;;;;;;;;;;;10.40;99.90;;;;;;5034537;28;20403;-66
2021/03/17 10:00:23;;;;;;;;;;;9.80;99.90;;;;;;5034851;28;20283;-65
2021/03/17 10:02:50;;;;;;;;;;;9.30;99.90;;;;;;5034847;28;19925;-65
2021/03/17 10:05:16;;;;;;;;;;;8.90;99.90;;;;;;5034664;28;19933;-65
2021/03/17 10:07:42;;;;;;;;;;;8.70;99.90;;;;;;5035033;28;19925;-65
2021/03/17 10:10:09;;;;;;;;;;;8.70;99.90;;;;;;5034623;28;19932;-65
2021/03/17 10:12:35;;;;;;;;;;;8.70;99.90;;;;;;5034571;28;19925;-65
2021/03/17 10:15:02;;;;;;;;;;;8.50;99.90;;;;;;5034629;28;19975;-65
2021/03/17 10:17:29;;;;;;;;;;;8.60;99.90;;;;;;5034660;28;19926;-66
2021/03/17 10:19:57;;;;;;;;;;;8.60;99.90;;;;;;5034563;28;19925;-66
2021/03/17 10:22:26;;;;;;;;;;;8.70;99.90;;;;;;5034071;28;20340;-66
2021/03/17 10:24:52;;;;;;;;;;;9.20;99.90;;;;;;5034102;28;20388;-65
2021/03/17 10:27:19;;;;;;;;;;;9.80;99.90;;;;;;5034202;28;19925;-66
2021/03/17 10:29:46;;;;;;;;;;;10.30;99.90;;;;;;5034340;28;19933;-65
2021/03/17 10:32:14;;;;;;;;;;;10.50;99.90;;;;;;5034335;28;19983;-65
2021/03/17 10:34:40;;;;;;;;;;;10.60;99.90;;;;;;5034934;28;19925;-66
2021/03/17 10:37:10;;;;;;;;;;;10.70;99.90;;;;;;5034156;28;19932;-65
2021/03/17 10:39:36;;;;;;;;;;;10.60;99.90;;;;;;5034305;28;19929;-65
2021/03/17 10:42:03;;;;;;;;;;;10.40;99.90;;;;;;5034456;28;19925;-66
2021/03/17 10:44:30;;;;;;;;;;;10.30;99.90;;;;;;5035180;28;19925;-65
2021/03/17 10:46:58;;;;;;;;;;;10.10;99.90;;;;;;5034503;28;19929;-65
2021/03/17 10:49:24;;;;;;;;;;;10.10;99.90;;;;;;5033770;28;19925;-65
2021/03/17 10:51:51;;;;;;;;;;;9.80;99.90;;;;;;5033709;28;19925;-65
2021/03/17 10:54:26;;;;;;;;;;;10.00;99.90;;;;;;5033989;28;19937;-65
2021/03/17 10:56:52;;;;;;;;;;;10.20;99.90;;;;;;5034058;28;19971;-65
2021/03/17 10:59:23;;;;;;;;;;;10.00;99.90;;;;;;5034016;28;19929;-66
2021/03/17 11:01:49;;;;;;;;;;;9.60;99.90;;;;;;5034294;28;19979;-66
2021/03/17 11:04:17;;;;;;;;;;;9.60;99.90;;;;;;5033867;28;19925;-65
2021/03/17 11:06:56;;;;;;;;;;;9.30;99.90;;;;;;5033679;28;19976;-65
2021/03/17 11:09:22;;;;;;;;;;;9.20;99.90;;;;;;5034076;28;19933;-65
2021/03/17 11:11:50;;;;;;;;;;;9.20;99.90;;;;;;5045123;22;19979;-66
2021/03/17 11:14:31;;;;;;;;;;;9.10;99.90;;;;;;5015071;28;20478;-66
2021/03/17 11:17:02;;;;;;;;;;;8.80;99.90;;;;;;5014675;28;19933;-66
2021/03/17 11:19:28;;;;;;;;;;;8.30;99.90;;;;;;5014730;28;19925;-65
2021/03/17 11:21:54;;;;;;;;;;;8.30;99.90;;;;;;5014246;28;19937;-66
2021/03/17 11:24:20;;;;;;;;;;;8.10;99.90;;;;;;5014424;28;19925;-67
2021/03/17 11:26:48;;;;;;;;;;;7.90;99.90;;;;;;5014828;28;19929;-66
2021/03/17 11:29:16;;;;;;;;;;;7.60;99.90;;;;;;5018681;28;19929;-66
2021/03/17 11:31:42;;;;;;;;;;;7.30;99.90;;;;;;5033317;28;19926;-67
2021/03/17 11:34:09;;;;;;;;;;;7.30;99.90;;;;;;5036900;28;19989;-65
2021/03/17 11:36:35;;;;;;;;;;;7.00;99.90;;;;;;5038080;28;19945;-66
2021/03/17 11:39:03;;;;;;;;;;;6.80;99.90;;;;;;5016622;28;19930;-66
2021/03/17 11:41:29;;;;;;;;;;;6.50;99.90;;;;;;5015803;28;19926;-67
2021/03/17 11:43:55;;;;;;;;;;;6.40;99.90;;;;;;5014303;28;20314;-67
2021/03/17 11:46:23;;;;;;;;;;;6.20;99.90;;;;;;5015060;28;19925;-67
2021/03/17 11:48:49;;;;;;;;;;;6.10;99.90;;;;;;5015539;28;19925;-66
2021/03/17 11:51:16;;;;;;;;;;;5.90;99.90;;;;;;5013829;28;19926;-66
2021/03/17 11:53:42;;;;;;;;;;;5.80;99.90;;;;;;5013417;28;19932;-66
2021/03/17 11:56:08;;;;;;;;;;;5.50;99.90;;;;;;5014428;28;19929;-65
2021/03/17 11:58:34;;;;;;;;;;;5.20;99.90;;;;;;5014305;28;19929;-66
2021/03/17 12:01:02;;;;;;;;;;;5.20;99.90;;;;;;5014939;28;19926;-65
2021/03/17 12:03:29;;;;;;;;;;;5.00;99.90;;;;;;5017320;28;19933;-65
2021/03/17 12:05:55;;;;;;;;;;;4.90;99.90;;;;;;5018162;28;19925;-64
2021/03/17 12:08:21;;;;;;;;;;;4.70;99.90;;;;;;5017494;28;19925;-64
2021/03/17 12:10:51;;;;;;;;;;;4.70;99.90;;;;;;5016720;28;20383;-65
2021/03/17 12:13:17;;;;;;;;;;;4.70;99.90;;;;;;5017467;28;19988;-65
2021/03/17 12:15:43;;;;;;;;;;;4.70;99.90;;;;;;5017898;28;19925;-65
2021/03/17 12:18:09;;;;;;;;;;;4.70;99.90;;;;;;5017454;28;19925;-64
2021/03/17 12:20:36;;;;;;;;;;;4.70;99.90;;;;;;5017681;28;19949;-65
2021/03/17 12:23:03;;;;;;;;;;;4.80;99.90;;;;;;5017120;28;19997;-65
2021/03/17 12:25:29;;;;;;;;;;;4.70;99.90;;;;;;5017220;28;20303;-65
2021/03/17 12:27:55;;;;;;;;;;;4.70;99.90;;;;;;5017306;28;20372;-64
2021/03/17 12:30:22;;;;;;;;;;;4.60;99.90;;;;;;5017046;28;19930;-65
2021/03/17 12:32:48;;;;;;;;;;;4.80;99.90;;;;;;5017329;28;20404;-65
2021/03/17 12:35:15;;;;;;;;;;;5.00;99.90;;;;;;5027730;28;19926;-65
2021/03/17 12:37:43;;;;;;;;;;;5.10;99.90;;;;;;5028376;28;19926;-66
2021/03/17 12:40:10;;;;;;;;;;;5.20;99.90;;;;;;5019359;28;19925;-65
2021/03/17 12:42:36;;;;;;;;;;;5.20;99.90;;;;;;5018733;28;20299;-64
2021/03/17 12:45:03;;;;;;;;;;;5.40;99.90;;;;;;5017224;28;19926;-64
2021/03/17 12:47:29;;;;;;;;;;;5.60;99.90;;;;;;5016994;28;19925;-64
2021/03/17 12:49:55;;;;;;;;;;;5.80;99.90;;;;;;5017176;28;19933;-66
2021/03/17 12:52:21;;;;;;;;;;;5.80;99.90;;;;;;5017043;28;19925;-66
2021/03/17 12:54:48;;;;;;;;;;;5.80;99.90;;;;;;5021193;28;19932;-65
2021/03/17 12:57:14;;;;;;;;;;;5.80;99.90;;;;;;5019781;28;19929;-65
2021/03/17 12:59:40;;;;;;;;;;;5.80;99.90;;;;;;5020464;28;19979;-66
2021/03/17 13:02:06;;;;;;;;;;;5.80;99.90;;;;;;5020166;28;19936;-65
2021/03/17 13:04:33;;;;;;;;;;;5.90;99.90;;;;;;5019627;28;19933;-65
2021/03/17 13:06:59;;;;;;;;;;;6.00;99.90;;;;;;5016869;28;19925;-64
2021/03/17 13:09:25;;;;;;;;;;;6.10;99.90;;;;;;5016658;28;19925;-64
2021/03/17 13:11:55;;;;;;;;;;;6.10;99.90;;;;;;5016598;28;20300;-65
2021/03/17 13:14:24;;;;;;;;;;;6.10;99.90;;;;;;5032866;28;20021;-65
2021/03/17 13:16:50;;;;;;;;;;;6.10;99.90;;;;;;5024122;28;19975;-65
2021/03/17 13:19:16;;;;;;;;;;;6.10;99.90;;;;;;5016750;28;19976;-66
2021/03/17 13:21:42;;;;;;;;;;;6.20;99.90;;;;;;5015987;28;19949;-66
2021/03/17 13:24:08;;;;;;;;;;;6.20;99.90;;;;;;5016709;28;19926;-66
2021/03/17 13:26:34;;;;;;;;;;;6.40;99.90;;;;;;5016292;28;19956;-66
2021/03/17 13:29:01;;;;;;;;;;;6.50;99.90;;;;;;5017913;28;19925;-65
2021/03/17 13:31:27;;;;;;;;;;;6.50;99.90;;;;;;5017747;28;19929;-65
2021/03/17 13:33:53;;;;;;;;;;;6.50;99.90;;;;;;5016076;28;19932;-65
2021/03/17 13:36:19;;;;;;;;;;;6.70;99.90;;;;;;5016536;28;19925;-65
2021/03/17 13:38:45;;;;;;;;;;;6.80;99.90;;;;;;5017153;28;19926;-66
2021/03/17 13:41:11;;;;;;;;;;;7.10;99.90;;;;;;5015831;28;19932;-65
2021/03/17 13:43:38;;;;;;;;;;;7.20;99.90;;;;;;5016076;28;20386;-66
2021/03/17 13:46:05;;;;;;;;;;;7.30;99.90;;;;;;5015832;28;19935;-65
2021/03/17 13:48:31;;;;;;;;;;;7.60;99.90;;;;;;5015482;28;19948;-66
2021/03/17 13:50:57;;;;;;;;;;;7.70;99.90;;;;;;5015411;28;19926;-66
2021/03/17 13:53:23;;;;;;;;;;;7.90;99.90;;;;;;5015370;28;19929;-65
2021/03/17 13:55:49;;;;;;;;;;;7.80;99.90;;;;;;5018159;28;19925;-65
2021/03/17 13:58:16;;;;;;;;;;;7.90;99.90;;;;;;5015793;28;20024;-66
2021/03/17 14:00:42;;;;;;;;;;;7.90;99.90;;;;;;5015355;28;19925;-66
2021/03/17 14:03:09;;;;;;;;;;;7.70;99.90;;;;;;5015535;28;19948;-66
2021/03/17 14:05:35;;;;;;;;;;;7.60;99.90;;;;;;5015840;28;19925;-66
2021/03/17 14:08:01;;;;;;;;;;;7.60;99.90;;;;;;5015078;28;20422;-65
2021/03/17 14:10:29;;;;;;;;;;;7.50;99.90;;;;;;5028876;28;20284;-66
2021/03/17 14:12:55;;;;;;;;;;;7.60;99.90;;;;;;5021510;28;20380;-66
2021/03/17 14:15:21;;;;;;;;;;;7.70;99.90;;;;;;5015698;28;19925;-65
2021/03/17 14:17:49;;;;;;;;;;;7.90;99.90;;;;;;5015762;28;19926;-66
2021/03/17 14:20:19;;;;;;;;;;;8.00;99.90;;;;;;5017167;28;19926;-66
2021/03/17 14:22:45;;;;;;;;;;;8.20;99.90;;;;;;5016525;28;19926;-66
2021/03/17 14:25:12;;;;;;;;;;;8.50;99.90;;;;;;5015720;28;19926;-66
2021/03/17 14:27:38;;;;;;;;;;;8.70;99.90;;;;;;5032159;28;19958;-65
2021/03/17 14:30:05;;;;;;;;;;;8.80;99.90;;;;;;5038726;28;19930;-66
2021/03/17 14:32:31;;;;;;;;;;;9.10;99.90;;;;;;5039065;28;19926;-65
2021/03/17 14:34:57;;;;;;;;;;;9.50;99.90;;;;;;5038683;28;19909;-65
2021/03/17 14:37:24;;;;;;;;;;;9.70;99.90;;;;;;5038375;28;19909;-65
2021/03/17 14:39:50;;;;;;;;;;;9.60;99.90;;;;;;5037950;28;19932;-65
2021/03/17 14:42:16;;;;;;;;;;;9.20;99.90;;;;;;5022146;28;19926;-66
2021/03/17 14:44:42;;;;;;;;;;;8.10;99.90;;;;;;5014905;28;19952;-65
2021/03/17 14:47:08;;;;;;;;;;;6.80;99.90;;;;;;5022153;28;19925;-65
2021/03/17 14:49:35;;;;;;;;;;;6.30;99.90;;;;;;5014866;28;19936;-64
2021/03/17 14:52:01;;;;;;;;;;;6.00;99.90;;;;;;5014713;28;19925;-65
2021/03/17 14:54:28;;;;;;;;;;;5.70;99.90;;;;;;5015161;28;19925;-65
2021/03/17 14:56:55;;;;;;;;;;;5.20;99.90;;;;;;5014911;28;19933;-63
2021/03/17 14:59:21;;;;;;;;;;;4.90;99.90;;;;;;5015063;28;19926;-64
2021/03/17 15:01:47;;;;;;;;;;;4.80;99.90;;;;;;5014914;28;19925;-64
2021/03/17 15:04:13;;;;;;;;;;;4.70;99.90;;;;;;5014773;28;19933;-65
2021/03/17 15:06:39;;;;;;;;;;;4.70;99.90;;;;;;5015333;28;19925;-65
2021/03/17 15:09:05;;;;;;;;;;;4.70;99.90;;;;;;5014644;28;19925;-65
2021/03/17 15:11:33;;;;;;;;;;;4.60;99.90;;;;;;5014286;28;19925;-65
2021/03/17 15:13:59;;;;;;;;;;;4.70;99.90;;;;;;5015813;28;19926;-65
2021/03/17 15:16:25;;;;;;;;;;;4.70;99.90;;;;;;5014483;28;19926;-65
2021/03/17 15:18:51;;;;;;;;;;;4.80;99.90;;;;;;5014547;28;19925;-65
2021/03/17 15:21:17;;;;;;;;;;;4.80;99.90;;;;;;5024857;28;19910;-65
2021/03/17 15:23:44;;;;;;;;;;;4.90;99.90;;;;;;5030641;28;20345;-66
2021/03/17 15:26:10;;;;;;;;;;;5.00;99.90;;;;;;5015759;28;20372;-65
2021/03/17 15:28:37;;;;;;;;;;;4.90;99.90;;;;;;5015961;28;19932;-64
2021/03/17 15:31:03;;;;;;;;;;;4.80;99.90;;;;;;5014628;28;19926;-65
2021/03/17 15:33:29;;;;;;;;;;;4.80;99.90;;;;;;5014576;28;20292;-65
2021/03/17 15:35:55;;;;;;;;;;;4.70;99.90;;;;;;5014998;28;20265;-64
2021/03/17 15:38:22;;;;;;;;;;;4.90;99.90;;;;;;5018301;28;19925;-64
2021/03/17 15:40:48;;;;;;;;;;;5.00;99.90;;;;;;5018409;28;19932;-64
2021/03/17 15:43:14;;;;;;;;;;;5.10;99.90;;;;;;5022247;28;19925;-65
2021/03/17 15:45:41;;;;;;;;;;;5.00;99.90;;;;;;5022859;28;19930;-65
2021/03/17 15:48:07;;;;;;;;;;;5.10;99.90;;;;;;5025774;28;19937;-66
2021/03/17 15:50:37;;;;;;;;;;;5.00;99.90;;;;;;5021492;28;19925;-64
2021/03/17 15:53:03;;;;;;;;;;;5.00;99.90;;;;;;5018518;28;20008;-66
2021/03/17 15:55:30;;;;;;;;;;;5.00;99.90;;;;;;5019449;28;19925;-64
2021/03/17 15:57:56;;;;;;;;;;;5.00;99.90;;;;;;5017977;28;19929;-65
2021/03/17 16:00:23;;;;;;;;;;;5.10;99.90;;;;;;5017678;28;20351;-65
2021/03/17 16:02:50;;;;;;;;;;;5.10;99.90;;;;;;5017700;28;19947;-64
2021/03/17 16:05:16;;;;;;;;;;;4.90;99.90;;;;;;5017730;28;19992;-65
2021/03/17 16:07:43;;;;;;;;;;;5.00;99.90;;;;;;5017512;28;19926;-64
2021/03/17 16:10:12;;;;;;;;;;;5.00;99.90;;;;;;5017265;28;19925;-65
2021/03/17 16:12:38;;;;;;;;;;;5.10;99.90;;;;;;5018148;28;19948;-65
2021/03/17 16:15:05;;;;;;;;;;;5.10;99.90;;;;;;5017640;28;19932;-65
2021/03/17 16:17:31;;;;;;;;;;;5.20;99.90;;;;;;5018277;28;19932;-64
2021/03/17 16:19:57;;;;;;;;;;;5.30;99.90;;;;;;5018021;28;19933;-65
2021/03/17 16:22:23;;;;;;;;;;;5.30;99.90;;;;;;5017276;28;20372;-66
2021/03/17 16:24:49;;;;;;;;;;;5.20;99.90;;;;;;5017806;28;19929;-66
2021/03/17 16:27:16;;;;;;;;;;;5.30;99.90;;;;;;5017580;28;19925;-65
2021/03/17 16:29:42;;;;;;;;;;;5.20;99.90;;;;;;5018246;28;19925;-64
2021/03/17 16:32:08;;;;;;;;;;;5.20;99.90;;;;;;5028280;28;19933;-65
2021/03/17 16:34:34;;;;;;;;;;;5.20;99.90;;;;;;5024973;28;19910;-66
2021/03/17 16:37:02;;;;;;;;;;;5.20;99.90;;;;;;5028666;28;19926;-66
2021/03/17 16:39:28;;;;;;;;;;;5.20;99.90;;;;;;5021178;28;19925;-66
2021/03/17 16:41:54;;;;;;;;;;;5.30;99.90;;;;;;5017572;28;19925;-65
2021/03/17 16:44:20;;;;;;;;;;;5.30;99.90;;;;;;5017393;28;20389;-65
2021/03/17 16:46:46;;;;;;;;;;;5.30;99.90;;;;;;5018120;28;19925;-66
2021/03/17 16:49:12;;;;;;;;;;;5.30;99.90;;;;;;5016803;28;19933;-65
2021/03/17 16:51:38;;;;;;;;;;;5.30;99.90;;;;;;5017313;28;19925;-65
2021/03/17 16:54:06;;;;;;;;;;;5.30;99.90;;;;;;5017244;28;19984;-65
2021/03/17 16:56:32;;;;;;;;;;;5.20;99.90;;;;;;5017271;28;19926;-65
2021/03/17 16:58:58;;;;;;;;;;;5.30;99.90;;;;;;5017277;28;19933;-65
2021/03/17 17:01:24;;;;;;;;;;;5.20;99.90;;;;;;5017684;28;19933;-65
2021/03/17 17:03:50;;;;;;;;;;;5.30;99.90;;;;;;5017370;28;19925;-66
2021/03/17 17:06:16;;;;;;;;;;;5.40;99.90;;;;;;5021162;28;19929;-65
2021/03/17 17:08:42;;;;;;;;;;;5.40;99.90;;;;;;5023508;28;19925;-66
2021/03/17 17:11:09;;;;;;;;;;;5.30;99.90;;;;;;5026667;28;19948;-66
2021/03/17 17:13:35;;;;;;;;;;;5.20;99.90;;;;;;5019936;28;19937;-66
2021/03/17 17:16:01;;;;;;;;;;;5.30;99.90;;;;;;5019284;28;20261;-66
2021/03/17 17:18:27;;;;;;;;;;;5.30;99.90;;;;;;5024783;28;19933;-66
2021/03/17 17:20:53;;;;;;;;;;;5.10;99.90;;;;;;5026512;28;19926;-66
2021/03/17 17:23:19;;;;;;;;;;;5.00;99.90;;;;;;5016772;28;19933;-66
2021/03/17 17:25:45;;;;;;;;;;;5.00;99.90;;;;;;5050130;23;19926;-66
2021/03/17 17:28:12;;;;;;;;;;;4.80;99.90;;;;;;5035161;28;20007;-66
2021/03/17 17:30:39;;;;;;;;;;;4.60;99.90;;;;;;5035460;28;19929;-66
2021/03/17 17:33:05;;;;;;;;;;;4.50;99.90;;;;;;5035192;28;19925;-66
2021/03/17 17:35:32;;;;;;;;;;;4.20;99.90;;;;;;5035619;28;19925;-67
2021/03/17 17:37:58;;;;;;;;;;;4.10;99.90;;;;;;5035534;28;19929;-67
2021/03/17 17:40:27;;;;;;;;;;;3.90;99.90;;;;;;5035882;28;19994;-65
2021/03/17 17:42:54;;;;;;;;;;;3.90;99.90;;;;;;5035095;28;19925;-67
2021/03/17 17:45:22;;;;;;;;;;;3.70;99.90;;;;;;5035050;28;19948;-66
2021/03/17 17:47:48;;;;;;;;;;;3.70;99.90;;;;;;5034770;28;19972;-67
2021/03/17 17:50:15;;;;;;;;;;;3.60;99.90;;;;;;5034579;28;19972;-66
2021/03/17 17:52:41;;;;;;;;;;;3.70;99.90;;;;;;5035533;28;20289;-67
2021/03/17 17:55:08;;;;;;;;;;;3.70;99.90;;;;;;5034996;28;19936;-66
2021/03/17 17:57:34;;;;;;;;;;;3.80;99.90;;;;;;5035507;28;19926;-68
2021/03/17 18:00:00;;;;;;;;;;;3.80;99.90;;;;;;5036211;28;19932;-66
2021/03/17 18:02:27;;;;;;;;;;;3.80;99.90;;;;;;5035408;28;19925;-67
2021/03/17 18:04:53;;;;;;;;;;;3.80;99.90;;;;;;5035933;28;19932;-68
2021/03/17 18:07:19;;;;;;;;;;;3.80;99.90;;;;;;5042023;28;20311;-66
2021/03/17 18:09:45;;;;;;;;;;;3.80;99.90;;;;;;5035998;28;20327;-67
2021/03/17 18:12:11;;;;;;;;;;;3.80;99.90;;;;;;5034961;28;19931;-67
2021/03/17 18:14:37;;;;;;;;;;;3.80;99.90;;;;;;5035242;28;20016;-66
2021/03/17 18:17:03;;;;;;;;;;;3.90;99.90;;;;;;5035120;28;19987;-67
2021/03/17 18:19:30;;;;;;;;;;;3.90;99.90;;;;;;5035531;28;19932;-67
2021/03/17 18:21:57;;;;;;;;;;;3.90;99.90;;;;;;5034796;28;20406;-67
2021/03/17 18:24:24;;;;;;;;;;;3.90;99.90;;;;;;5034913;28;19987;-66
2021/03/17 18:26:50;;;;;;;;;;;3.90;99.90;;;;;;5034463;28;20291;-67
2021/03/17 18:29:17;;;;;;;;;;;3.80;99.90;;;;;;5033958;28;22771;-66
2021/03/17 18:31:43;;;;;;;;;;;3.70;99.90;;;;;;5035719;28;19935;-66
2021/03/17 18:34:09;;;;;;;;;;;3.70;99.90;;;;;;5035096;28;19932;-67
2021/03/17 18:36:36;;;;;;;;;;;3.80;99.90;;;;;;5035073;28;19932;-67
2021/03/17 18:39:04;;;;;;;;;;;3.80;99.90;;;;;;5035241;28;19925;-66
2021/03/17 18:41:30;;;;;;;;;;;3.80;99.90;;;;;;5034971;28;19932;-67
2021/03/17 18:43:56;;;;;;;;;;;3.80;99.90;;;;;;5035193;28;20020;-66
2021/03/17 18:46:22;;;;;;;;;;;3.70;99.90;;;;;;5035080;28;20384;-68
2021/03/17 18:48:48;;;;;;;;;;;3.70;99.90;;;;;;5035788;28;19929;-67
2021/03/17 18:51:15;;;;;;;;;;;3.70;99.90;;;;;;5034777;28;19926;-67
2021/03/17 18:53:42;;;;;;;;;;;3.70;99.90;;;;;;5035368;28;20319;-67
2021/03/17 18:56:08;;;;;;;;;;;3.60;99.90;;;;;;5035208;28;19936;-66
2021/03/17 18:58:34;;;;;;;;;;;3.60;99.90;;;;;;5035177;28;19925;-67
2021/03/17 19:01:01;;;;;;;;;;;3.60;99.90;;;;;;5034231;28;20399;-68
2021/03/17 19:03:27;;;;;;;;;;;3.60;99.90;;;;;;5034720;28;19929;-68
2021/03/17 19:05:53;;;;;;;;;;;3.60;99.90;;;;;;5034339;28;19979;-67
2021/03/17 19:08:19;;;;;;;;;;;3.60;99.90;;;;;;5034547;28;20334;-68
2021/03/17 19:10:48;;;;;;;;;;;3.60;99.90;;;;;;5034771;28;19925;-67
2021/03/17 19:13:15;;;;;;;;;;;3.60;99.90;;;;;;5038811;28;19925;-68
2021/03/17 19:15:41;;;;;;;;;;;3.60;99.90;;;;;;5049336;28;19925;-68
2021/03/17 19:18:08;;;;;;;;;;;3.60;99.90;;;;;;5050575;28;19947;-68
2021/03/17 19:20:35;;;;;;;;;;;3.60;99.90;;;;;;5047797;28;19932;-68
2021/03/17 19:23:02;;;;;;;;;;;3.50;99.90;;;;;;5039429;28;19925;-67
2021/03/17 19:25:29;;;;;;;;;;;3.50;99.90;;;;;;5038934;28;19979;-67
2021/03/17 19:27:56;;;;;;;;;;;3.50;99.90;;;;;;5038347;28;19979;-66
2021/03/17 19:30:26;;;;;;;;;;;3.50;99.90;;;;;;5037704;28;19929;-67